sensor_id;sensor_type;location;lat;lon;timestamp;temperature;humidity
40177;DHT22;31511;46.176;9.874;2023-05-29T00:02:43;17.90;99.90
40177;DHT22;31511;46.176;9.874;2023-05-29T00:05:29;18.00;99.90
40177;DHT22;31511;46.176;9.874;2023-05-29T00:08:14;18.00;99.90
40177;DHT22;31511;46.176;9.874;2023-05-29T00:10:59;17.90;99.90
40177;DHT22;31511;46.176;9.874;2023-05-29T00:13:44;17.90;99.90
40177;DHT22;31511;46.176;9.874;2023-05-29T00:16:29;17.70;99.90
40177;DHT22;31511;46.176;9.874;2023-05-29T00:19:14;17.80;99.90
40177;DHT22;31511;46.176;9.874;2023-05-29T00:22:03;17.70;99.90
40177;DHT22;31511;46.176;9.874;2023-05-29T00:24:47;17.70;99.90
40177;DHT22;31511;46.176;9.874;2023-05-29T00:27:31;17.70;99.90
40177;DHT22;31511;46.176;9.874;2023-05-29T00:30:16;17.60;1.00
40177;DHT22;31511;46.176;9.874;2023-05-29T00:33:00;17.60;1.00
40177;DHT22;31511;46.176;9.874;2023-05-29T00:35:45;17.60;1.00
40177;DHT22;31511;46.176;9.874;2023-05-29T00:38:29;17.70;1.00
40177;DHT22;31511;46.176;9.874;2023-05-29T00:41:14;17.70;1.00
40177;DHT22;31511;46.176;9.874;2023-05-29T00:43:59;17.70;1.00
40177;DHT22;31511;46.176;9.874;2023-05-29T00:46:43;17.50;1.00
40177;DHT22;31511;46.176;9.874;2023-05-29T00:49:29;17.40;1.00
40177;DHT22;31511;46.176;9.874;2023-05-29T00:52:13;17.80;99.90
40177;DHT22;31511;46.176;9.874;2023-05-29T00:54:58;17.60;99.90
40177;DHT22;31511;46.176;9.874;2023-05-29T00:57:45;17.50;99.90
40177;DHT22;31511;46.176;9.874;2023-05-29T01:00:31;17.70;99.90
40177;DHT22;31511;46.176;9.874;2023-05-29T01:03:16;17.70;99.90
40177;DHT22;31511;46.176;9.874;2023-05-29T01:06:01;17.20;99.90
40177;DHT22;31511;46.176;9.874;2023-05-29T01:08:47;17.20;99.90
40177;DHT22;31511;46.176;9.874;2023-05-29T01:11:32;17.40;99.90
40177;DHT22;31511;46.176;9.874;2023-05-29T01:14:41;17.40;99.90
40177;DHT22;31511;46.176;9.874;2023-05-29T01:20:26;17.70;99.90
40177;DHT22;31511;46.176;9.874;2023-05-29T01:29:29;17.40;1.00
40177;DHT22;31511;46.176;9.874;2023-05-29T01:32:16;17.40;1.00
40177;DHT22;31511;46.176;9.874;2023-05-29T01:35:00;17.50;1.00
40177;DHT22;31511;46.176;9.874;2023-05-29T01:37:44;17.40;1.00
40177;DHT22;31511;46.176;9.874;2023-05-29T01:40:30;17.40;1.00
40177;DHT22;31511;46.176;9.874;2023-05-29T01:43:14;17.30;1.00
40177;DHT22;31511;46.176;9.874;2023-05-29T01:45:59;17.70;99.90
40177;DHT22;31511;46.176;9.874;2023-05-29T01:48:44;17.50;1.00
40177;DHT22;31511;46.176;9.874;2023-05-29T01:51:29;17.40;1.00
40177;DHT22;31511;46.176;9.874;2023-05-29T01:54:15;17.20;1.00
40177;DHT22;31511;46.176;9.874;2023-05-29T01:57:01;17.20;1.00
40177;DHT22;31511;46.176;9.874;2023-05-29T01:59:46;17.20;1.00
40177;DHT22;31511;46.176;9.874;2023-05-29T02:02:30;17.20;1.00
40177;DHT22;31511;46.176;9.874;2023-05-29T02:05:15;17.10;1.00
40177;DHT22;31511;46.176;9.874;2023-05-29T02:08:01;17.40;1.00
40177;DHT22;31511;46.176;9.874;2023-05-29T02:10:45;17.40;1.00
40177;DHT22;31511;46.176;9.874;2023-05-29T02:13:29;17.40;1.00
40177;DHT22;31511;46.176;9.874;2023-05-29T02:16:14;17.20;1.00
40177;DHT22;31511;46.176;9.874;2023-05-29T02:19:00;17.20;1.00
40177;DHT22;31511;46.176;9.874;2023-05-29T02:21:46;17.20;1.00
40177;DHT22;31511;46.176;9.874;2023-05-29T02:24:30;17.20;1.00
40177;DHT22;31511;46.176;9.874;2023-05-29T02:27:15;17.20;1.00
40177;DHT22;31511;46.176;9.874;2023-05-29T02:29:59;17.30;1.00
40177;DHT22;31511;46.176;9.874;2023-05-29T02:32:44;17.20;1.00
40177;DHT22;31511;46.176;9.874;2023-05-29T02:35:29;17.20;1.00
40177;DHT22;31511;46.176;9.874;2023-05-29T02:38:13;17.20;1.00
40177;DHT22;31511;46.176;9.874;2023-05-29T02:40:59;17.40;1.00
40177;DHT22;31511;46.176;9.874;2023-05-29T02:43:43;17.30;1.00
40177;DHT22;31511;46.176;9.874;2023-05-29T02:46:28;17.00;1.00
40177;DHT22;31511;46.176;9.874;2023-05-29T02:49:12;17.00;1.00
40177;DHT22;31511;46.176;9.874;2023-05-29T02:51:57;17.00;1.00
40177;DHT22;31511;46.176;9.874;2023-05-29T02:54:42;16.80;1.00
40177;DHT22;31511;46.176;9.874;2023-05-29T02:57:27;16.90;1.00
40177;DHT22;31511;46.176;9.874;2023-05-29T03:00:13;16.90;1.00
40177;DHT22;31511;46.176;9.874;2023-05-29T03:02:57;17.00;1.00
40177;DHT22;31511;46.176;9.874;2023-05-29T03:05:42;17.00;1.00
40177;DHT22;31511;46.176;9.874;2023-05-29T03:08:28;17.00;1.00
40177;DHT22;31511;46.176;9.874;2023-05-29T03:11:13;17.00;1.00
40177;DHT22;31511;46.176;9.874;2023-05-29T03:13:59;17.00;1.00
40177;DHT22;31511;46.176;9.874;2023-05-29T03:16:43;17.00;1.00
40177;DHT22;31511;46.176;9.874;2023-05-29T03:19:29;16.90;1.00
40177;DHT22;31511;46.176;9.874;2023-05-29T03:22:14;16.90;1.00
40177;DHT22;31511;46.176;9.874;2023-05-29T03:24:59;16.80;1.00
40177;DHT22;31511;46.176;9.874;2023-05-29T03:27:43;17.00;99.90
40177;DHT22;31511;46.176;9.874;2023-05-29T03:30:27;16.90;99.90
40177;DHT22;31511;46.176;9.874;2023-05-29T03:33:12;16.90;99.90
40177;DHT22;31511;46.176;9.874;2023-05-29T03:35:57;17.00;99.90
40177;DHT22;31511;46.176;9.874;2023-05-29T03:38:41;16.90;99.90
40177;DHT22;31511;46.176;9.874;2023-05-29T03:41:27;17.00;1.00
40177;DHT22;31511;46.176;9.874;2023-05-29T03:44:12;17.20;99.90
40177;DHT22;31511;46.176;9.874;2023-05-29T03:46:59;16.80;1.00
40177;DHT22;31511;46.176;9.874;2023-05-29T03:49:44;16.70;1.00
40177;DHT22;31511;46.176;9.874;2023-05-29T03:52:29;16.70;1.00
40177;DHT22;31511;46.176;9.874;2023-05-29T03:55:14;16.70;1.00
40177;DHT22;31511;46.176;9.874;2023-05-29T03:57:59;16.70;1.00
40177;DHT22;31511;46.176;9.874;2023-05-29T04:00:43;16.60;1.00
40177;DHT22;31511;46.176;9.874;2023-05-29T04:03:29;16.50;1.00
40177;DHT22;31511;46.176;9.874;2023-05-29T04:06:15;16.60;1.00
40177;DHT22;31511;46.176;9.874;2023-05-29T04:09:00;16.50;1.00
40177;DHT22;31511;46.176;9.874;2023-05-29T04:11:44;16.70;1.00
40177;DHT22;31511;46.176;9.874;2023-05-29T04:14:30;16.70;1.00
40177;DHT22;31511;46.176;9.874;2023-05-29T04:17:14;16.60;1.00
40177;DHT22;31511;46.176;9.874;2023-05-29T04:19:59;16.60;1.00
40177;DHT22;31511;46.176;9.874;2023-05-29T04:22:49;16.50;1.00
40177;DHT22;31511;46.176;9.874;2023-05-29T04:25:33;16.70;1.00
40177;DHT22;31511;46.176;9.874;2023-05-29T04:28:18;16.70;1.00
40177;DHT22;31511;46.176;9.874;2023-05-29T04:31:05;16.70;1.00
40177;DHT22;31511;46.176;9.874;2023-05-29T04:33:49;16.50;1.00
40177;DHT22;31511;46.176;9.874;2023-05-29T04:36:34;16.50;1.00
40177;DHT22;31511;46.176;9.874;2023-05-29T04:39:22;16.60;1.00
40177;DHT22;31511;46.176;9.874;2023-05-29T04:42:09;16.90;1.00
40177;DHT22;31511;46.176;9.874;2023-05-29T04:44:53;16.90;1.00
40177;DHT22;31511;46.176;9.874;2023-05-29T04:47:38;17.00;1.00
40177;DHT22;31511;46.176;9.874;2023-05-29T04:50:28;17.00;1.00
40177;DHT22;31511;46.176;9.874;2023-05-29T04:53:15;17.10;99.90
40177;DHT22;31511;46.176;9.874;2023-05-29T04:55:59;17.00;1.00
40177;DHT22;31511;46.176;9.874;2023-05-29T04:58:43;17.10;1.00
40177;DHT22;31511;46.176;9.874;2023-05-29T05:01:28;17.20;99.90
40177;DHT22;31511;46.176;9.874;2023-05-29T05:04:12;17.10;99.90
40177;DHT22;31511;46.176;9.874;2023-05-29T05:06:57;17.10;99.90
40177;DHT22;31511;46.176;9.874;2023-05-29T05:09:42;17.10;99.90
40177;DHT22;31511;46.176;9.874;2023-05-29T05:12:27;17.10;99.90
40177;DHT22;31511;46.176;9.874;2023-05-29T05:15:12;17.40;99.90
40177;DHT22;31511;46.176;9.874;2023-05-29T05:17:57;17.40;99.90
40177;DHT22;31511;46.176;9.874;2023-05-29T05:20:42;17.40;99.90
40177;DHT22;31511;46.176;9.874;2023-05-29T05:23:27;17.50;99.90
40177;DHT22;31511;46.176;9.874;2023-05-29T05:26:13;17.50;99.90
40177;DHT22;31511;46.176;9.874;2023-05-29T05:28:58;17.50;99.90
40177;DHT22;31511;46.176;9.874;2023-05-29T05:31:42;17.50;99.90
40177;DHT22;31511;46.176;9.874;2023-05-29T05:34:28;17.50;99.90
40177;DHT22;31511;46.176;9.874;2023-05-29T05:37:14;17.50;99.90
40177;DHT22;31511;46.176;9.874;2023-05-29T05:39:59;17.50;99.90
40177;DHT22;31511;46.176;9.874;2023-05-29T05:42:44;17.50;99.90
40177;DHT22;31511;46.176;9.874;2023-05-29T05:45:29;17.50;99.90
40177;DHT22;31511;46.176;9.874;2023-05-29T05:48:14;17.50;99.90
40177;DHT22;31511;46.176;9.874;2023-05-29T05:50:59;17.70;99.90
40177;DHT22;31511;46.176;9.874;2023-05-29T05:53:44;17.50;99.90
40177;DHT22;31511;46.176;9.874;2023-05-29T05:56:29;17.60;99.90
40177;DHT22;31511;46.176;9.874;2023-05-29T05:59:14;17.60;99.90
40177;DHT22;31511;46.176;9.874;2023-05-29T06:01:59;17.60;99.90
40177;DHT22;31511;46.176;9.874;2023-05-29T06:04:43;17.60;99.90
40177;DHT22;31511;46.176;9.874;2023-05-29T06:07:28;17.50;99.90
40177;DHT22;31511;46.176;9.874;2023-05-29T06:10:13;17.70;99.90
40177;DHT22;31511;46.176;9.874;2023-05-29T06:12:58;17.70;99.90
40177;DHT22;31511;46.176;9.874;2023-05-29T06:15:43;17.70;99.90
40177;DHT22;31511;46.176;9.874;2023-05-29T06:18:28;17.80;99.90
40177;DHT22;31511;46.176;9.874;2023-05-29T06:21:12;17.90;99.90
40177;DHT22;31511;46.176;9.874;2023-05-29T06:23:57;18.10;99.90
40177;DHT22;31511;46.176;9.874;2023-05-29T06:26:42;18.20;99.90
40177;DHT22;31511;46.176;9.874;2023-05-29T06:29:27;18.30;99.90
40177;DHT22;31511;46.176;9.874;2023-05-29T06:32:13;18.20;99.90
40177;DHT22;31511;46.176;9.874;2023-05-29T06:34:57;18.30;99.90
40177;DHT22;31511;46.176;9.874;2023-05-29T06:37:42;18.30;99.90
40177;DHT22;31511;46.176;9.874;2023-05-29T06:40:27;18.40;99.90
40177;DHT22;31511;46.176;9.874;2023-05-29T06:43:13;18.40;99.90
40177;DHT22;31511;46.176;9.874;2023-05-29T06:45:59;18.30;99.90
40177;DHT22;31511;46.176;9.874;2023-05-29T06:48:43;18.60;99.90
40177;DHT22;31511;46.176;9.874;2023-05-29T06:51:29;18.70;99.90
40177;DHT22;31511;46.176;9.874;2023-05-29T06:54:16;18.50;99.90
40177;DHT22;31511;46.176;9.874;2023-05-29T06:57:01;18.40;99.90
40177;DHT22;31511;46.176;9.874;2023-05-29T06:59:45;18.40;99.90
40177;DHT22;31511;46.176;9.874;2023-05-29T07:02:29;18.60;99.90
40177;DHT22;31511;46.176;9.874;2023-05-29T07:05:14;18.70;99.90
40177;DHT22;31511;46.176;9.874;2023-05-29T07:07:58;18.90;99.90
40177;DHT22;31511;46.176;9.874;2023-05-29T07:10:42;18.80;99.90
40177;DHT22;31511;46.176;9.874;2023-05-29T07:13:28;18.90;99.90
40177;DHT22;31511;46.176;9.874;2023-05-29T07:16:12;18.90;99.90
40177;DHT22;31511;46.176;9.874;2023-05-29T07:18:57;19.00;99.90
40177;DHT22;31511;46.176;9.874;2023-05-29T07:21:41;19.10;99.90
40177;DHT22;31511;46.176;9.874;2023-05-29T07:24:27;19.20;99.90
40177;DHT22;31511;46.176;9.874;2023-05-29T07:27:13;19.20;99.90
40177;DHT22;31511;46.176;9.874;2023-05-29T07:30:00;19.30;99.90
40177;DHT22;31511;46.176;9.874;2023-05-29T07:32:44;19.50;99.90
40177;DHT22;31511;46.176;9.874;2023-05-29T07:35:29;19.50;99.90
40177;DHT22;31511;46.176;9.874;2023-05-29T07:38:16;19.40;99.90
40177;DHT22;31511;46.176;9.874;2023-05-29T07:41:01;19.50;99.90
40177;DHT22;31511;46.176;9.874;2023-05-29T07:43:46;19.50;99.90
40177;DHT22;31511;46.176;9.874;2023-05-29T07:46:35;19.60;99.90
40177;DHT22;31511;46.176;9.874;2023-05-29T07:49:20;19.70;99.90
40177;DHT22;31511;46.176;9.874;2023-05-29T07:52:06;19.90;99.90
40177;DHT22;31511;46.176;9.874;2023-05-29T07:54:50;20.00;99.90
40177;DHT22;31511;46.176;9.874;2023-05-29T07:57:35;19.80;99.90
40177;DHT22;31511;46.176;9.874;2023-05-29T08:00:19;20.00;99.90
40177;DHT22;31511;46.176;9.874;2023-05-29T08:03:03;20.10;99.90
40177;DHT22;31511;46.176;9.874;2023-05-29T08:05:47;20.20;99.90
40177;DHT22;31511;46.176;9.874;2023-05-29T08:08:32;20.10;99.90
40177;DHT22;31511;46.176;9.874;2023-05-29T08:11:16;20.00;99.90
40177;DHT22;31511;46.176;9.874;2023-05-29T08:14:00;20.10;99.90
40177;DHT22;31511;46.176;9.874;2023-05-29T08:16:44;20.20;99.90
40177;DHT22;31511;46.176;9.874;2023-05-29T08:19:29;20.10;99.90
40177;DHT22;31511;46.176;9.874;2023-05-29T08:22:13;20.20;99.90
40177;DHT22;31511;46.176;9.874;2023-05-29T08:24:59;20.20;99.90
40177;DHT22;31511;46.176;9.874;2023-05-29T08:27:43;20.30;99.90
40177;DHT22;31511;46.176;9.874;2023-05-29T08:30:27;20.40;99.90
40177;DHT22;31511;46.176;9.874;2023-05-29T08:33:12;20.50;99.90
40177;DHT22;31511;46.176;9.874;2023-05-29T08:35:57;20.40;99.90
40177;DHT22;31511;46.176;9.874;2023-05-29T08:38:41;20.40;99.90
40177;DHT22;31511;46.176;9.874;2023-05-29T08:41:38;20.40;99.90
40177;DHT22;31511;46.176;9.874;2023-05-29T08:44:28;20.30;99.90
40177;DHT22;31511;46.176;9.874;2023-05-29T08:47:13;20.60;99.90
40177;DHT22;31511;46.176;9.874;2023-05-29T08:50:04;20.60;99.90
40177;DHT22;31511;46.176;9.874;2023-05-29T08:52:49;20.40;99.90
40177;DHT22;31511;46.176;9.874;2023-05-29T08:55:34;20.60;99.90
40177;DHT22;31511;46.176;9.874;2023-05-29T08:58:19;20.90;99.90
40177;DHT22;31511;46.176;9.874;2023-05-29T09:01:05;21.00;99.90
40177;DHT22;31511;46.176;9.874;2023-05-29T09:03:50;21.30;99.90
40177;DHT22;31511;46.176;9.874;2023-05-29T09:06:35;21.60;99.90
40177;DHT22;31511;46.176;9.874;2023-05-29T09:09:19;21.80;99.90
40177;DHT22;31511;46.176;9.874;2023-05-29T09:12:04;21.50;99.90
40177;DHT22;31511;46.176;9.874;2023-05-29T09:14:48;21.30;99.90
40177;DHT22;31511;46.176;9.874;2023-05-29T09:17:32;21.30;99.90
40177;DHT22;31511;46.176;9.874;2023-05-29T09:20:17;21.00;99.90
40177;DHT22;31511;46.176;9.874;2023-05-29T09:23:05;21.10;99.90
40177;DHT22;31511;46.176;9.874;2023-05-29T09:25:53;21.00;99.90
40177;DHT22;31511;46.176;9.874;2023-05-29T09:28:37;21.00;99.90
40177;DHT22;31511;46.176;9.874;2023-05-29T09:31:23;20.90;99.90
40177;DHT22;31511;46.176;9.874;2023-05-29T09:34:08;21.10;99.90
40177;DHT22;31511;46.176;9.874;2023-05-29T09:36:53;21.40;99.90
40177;DHT22;31511;46.176;9.874;2023-05-29T09:39:50;21.50;99.90
40177;DHT22;31511;46.176;9.874;2023-05-29T09:42:36;21.80;99.90
40177;DHT22;31511;46.176;9.874;2023-05-29T09:45:22;22.00;99.90
40177;DHT22;31511;46.176;9.874;2023-05-29T09:48:08;21.90;99.90
40177;DHT22;31511;46.176;9.874;2023-05-29T09:50:56;21.60;99.90
40177;DHT22;31511;46.176;9.874;2023-05-29T09:53:41;21.50;99.90
40177;DHT22;31511;46.176;9.874;2023-05-29T09:56:28;21.90;99.90
40177;DHT22;31511;46.176;9.874;2023-05-29T09:59:14;22.00;99.90
40177;DHT22;31511;46.176;9.874;2023-05-29T10:02:03;22.00;99.90
40177;DHT22;31511;46.176;9.874;2023-05-29T10:04:56;22.00;99.90
40177;DHT22;31511;46.176;9.874;2023-05-29T10:07:40;21.70;99.90
40177;DHT22;31511;46.176;9.874;2023-05-29T10:10:29;22.10;99.90
40177;DHT22;31511;46.176;9.874;2023-05-29T10:13:15;22.50;99.90
40177;DHT22;31511;46.176;9.874;2023-05-29T10:16:03;22.70;99.90
40177;DHT22;31511;46.176;9.874;2023-05-29T10:18:49;22.10;99.90
40177;DHT22;31511;46.176;9.874;2023-05-29T10:21:36;22.20;99.90
40177;DHT22;31511;46.176;9.874;2023-05-29T10:24:22;22.20;99.90
40177;DHT22;31511;46.176;9.874;2023-05-29T10:27:07;22.50;99.90
40177;DHT22;31511;46.176;9.874;2023-05-29T10:30:27;23.10;99.90
40177;DHT22;31511;46.176;9.874;2023-05-29T10:35:47;23.60;99.90
40177;DHT22;31511;46.176;9.874;2023-05-29T10:38:32;23.70;99.90
40177;DHT22;31511;46.176;9.874;2023-05-29T10:44:46;23.90;99.90
40177;DHT22;31511;46.176;9.874;2023-05-29T10:47:25;24.20;99.90
40177;DHT22;31511;46.176;9.874;2023-05-29T10:50:11;24.50;99.90
40177;DHT22;31511;46.176;9.874;2023-05-29T10:52:56;24.10;99.90
40177;DHT22;31511;46.176;9.874;2023-05-29T10:55:40;24.60;99.90
40177;DHT22;31511;46.176;9.874;2023-05-29T10:58:25;24.80;99.90
40177;DHT22;31511;46.176;9.874;2023-05-29T11:01:10;25.90;99.90
40177;DHT22;31511;46.176;9.874;2023-05-29T11:07:01;26.00;99.90
40177;DHT22;31511;46.176;9.874;2023-05-29T11:09:49;24.70;99.90
40177;DHT22;31511;46.176;9.874;2023-05-29T11:12:35;24.40;99.90
40177;DHT22;31511;46.176;9.874;2023-05-29T11:15:39;25.20;99.90
40177;DHT22;31511;46.176;9.874;2023-05-29T11:18:25;24.40;99.90
40177;DHT22;31511;46.176;9.874;2023-05-29T11:24:13;24.10;99.90
40177;DHT22;31511;46.176;9.874;2023-05-29T11:27:00;23.90;99.90
40177;DHT22;31511;46.176;9.874;2023-05-29T11:29:51;23.90;99.90
40177;DHT22;31511;46.176;9.874;2023-05-29T11:32:38;24.10;99.90
40177;DHT22;31511;46.176;9.874;2023-05-29T11:35:25;24.90;99.90
40177;DHT22;31511;46.176;9.874;2023-05-29T11:38:11;27.00;99.90
40177;DHT22;31511;46.176;9.874;2023-05-29T11:40:56;27.10;99.90
40177;DHT22;31511;46.176;9.874;2023-05-29T11:43:42;27.50;99.90
40177;DHT22;31511;46.176;9.874;2023-05-29T11:46:27;28.50;99.90
40177;DHT22;31511;46.176;9.874;2023-05-29T11:49:27;28.30;99.90
40177;DHT22;31511;46.176;9.874;2023-05-29T11:52:13;28.90;99.90
40177;DHT22;31511;46.176;9.874;2023-05-29T11:55:05;27.90;99.90
40177;DHT22;31511;46.176;9.874;2023-05-29T11:57:49;27.90;99.90
40177;DHT22;31511;46.176;9.874;2023-05-29T12:00:35;28.80;99.90
40177;DHT22;31511;46.176;9.874;2023-05-29T12:03:20;28.20;99.90
40177;DHT22;31511;46.176;9.874;2023-05-29T12:06:04;28.00;99.90
40177;DHT22;31511;46.176;9.874;2023-05-29T12:08:50;28.40;99.90
40177;DHT22;31511;46.176;9.874;2023-05-29T12:11:35;27.60;99.90
40177;DHT22;31511;46.176;9.874;2023-05-29T12:14:20;26.90;99.90
40177;DHT22;31511;46.176;9.874;2023-05-29T12:17:06;26.70;99.90
40177;DHT22;31511;46.176;9.874;2023-05-29T12:19:50;26.60;99.90
40177;DHT22;31511;46.176;9.874;2023-05-29T12:22:35;26.10;99.90
40177;DHT22;31511;46.176;9.874;2023-05-29T12:25:21;26.10;99.90
40177;DHT22;31511;46.176;9.874;2023-05-29T12:28:06;26.40;99.90
40177;DHT22;31511;46.176;9.874;2023-05-29T12:30:57;26.40;99.90
40177;DHT22;31511;46.176;9.874;2023-05-29T12:33:42;26.20;99.90
40177;DHT22;31511;46.176;9.874;2023-05-29T12:36:28;26.30;99.90
40177;DHT22;31511;46.176;9.874;2023-05-29T12:39:15;26.10;99.90
40177;DHT22;31511;46.176;9.874;2023-05-29T12:42:00;26.20;99.90
40177;DHT22;31511;46.176;9.874;2023-05-29T12:44:44;26.20;99.90
40177;DHT22;31511;46.176;9.874;2023-05-29T12:47:29;25.80;99.90
40177;DHT22;31511;46.176;9.874;2023-05-29T12:50:26;25.80;99.90
40177;DHT22;31511;46.176;9.874;2023-05-29T12:53:12;25.90;99.90
40177;DHT22;31511;46.176;9.874;2023-05-29T12:56:00;25.70;99.90
40177;DHT22;31511;46.176;9.874;2023-05-29T12:58:45;26.00;99.90
40177;DHT22;31511;46.176;9.874;2023-05-29T13:01:30;25.80;99.90
40177;DHT22;31511;46.176;9.874;2023-05-29T13:04:14;25.70;99.90
40177;DHT22;31511;46.176;9.874;2023-05-29T13:07:00;25.60;99.90
40177;DHT22;31511;46.176;9.874;2023-05-29T13:09:44;25.70;99.90
40177;DHT22;31511;46.176;9.874;2023-05-29T13:12:30;26.20;99.90
40177;DHT22;31511;46.176;9.874;2023-05-29T13:15:14;26.10;99.90
40177;DHT22;31511;46.176;9.874;2023-05-29T13:17:59;25.70;99.90
40177;DHT22;31511;46.176;9.874;2023-05-29T13:20:43;25.80;99.90
40177;DHT22;31511;46.176;9.874;2023-05-29T13:23:30;25.80;99.90
40177;DHT22;31511;46.176;9.874;2023-05-29T13:26:15;26.30;99.90
40177;DHT22;31511;46.176;9.874;2023-05-29T13:28:59;27.10;99.90
40177;DHT22;31511;46.176;9.874;2023-05-29T13:31:44;27.10;99.90
40177;DHT22;31511;46.176;9.874;2023-05-29T13:34:29;26.40;99.90
40177;DHT22;31511;46.176;9.874;2023-05-29T13:37:14;26.20;99.90
40177;DHT22;31511;46.176;9.874;2023-05-29T13:39:58;25.90;99.90
40177;DHT22;31511;46.176;9.874;2023-05-29T13:42:42;26.00;99.90
40177;DHT22;31511;46.176;9.874;2023-05-29T13:45:28;26.30;99.90
40177;DHT22;31511;46.176;9.874;2023-05-29T13:48:14;26.10;99.90
40177;DHT22;31511;46.176;9.874;2023-05-29T13:51:01;26.10;99.90
40177;DHT22;31511;46.176;9.874;2023-05-29T13:53:45;25.90;99.90
40177;DHT22;31511;46.176;9.874;2023-05-29T13:56:30;26.20;99.90
40177;DHT22;31511;46.176;9.874;2023-05-29T13:59:14;26.30;99.90
40177;DHT22;31511;46.176;9.874;2023-05-29T14:01:59;26.60;99.90
40177;DHT22;31511;46.176;9.874;2023-05-29T14:04:43;26.60;99.90
40177;DHT22;31511;46.176;9.874;2023-05-29T14:07:29;26.30;99.90
40177;DHT22;31511;46.176;9.874;2023-05-29T14:10:14;26.50;99.90
40177;DHT22;31511;46.176;9.874;2023-05-29T14:12:59;26.50;99.90
40177;DHT22;31511;46.176;9.874;2023-05-29T14:15:44;26.60;99.90
40177;DHT22;31511;46.176;9.874;2023-05-29T14:18:28;26.10;99.90
40177;DHT22;31511;46.176;9.874;2023-05-29T14:21:12;25.90;99.90
40177;DHT22;31511;46.176;9.874;2023-05-29T14:23:59;25.70;99.90
40177;DHT22;31511;46.176;9.874;2023-05-29T14:26:43;25.80;99.90
40177;DHT22;31511;46.176;9.874;2023-05-29T14:29:30;25.70;99.90
40177;DHT22;31511;46.176;9.874;2023-05-29T14:32:15;25.60;99.90
40177;DHT22;31511;46.176;9.874;2023-05-29T14:35:00;25.30;99.90
40177;DHT22;31511;46.176;9.874;2023-05-29T14:37:45;25.10;99.90
40177;DHT22;31511;46.176;9.874;2023-05-29T14:40:30;25.00;99.90
40177;DHT22;31511;46.176;9.874;2023-05-29T14:43:15;25.00;99.90
40177;DHT22;31511;46.176;9.874;2023-05-29T14:46:00;24.90;99.90
40177;DHT22;31511;46.176;9.874;2023-05-29T14:48:44;24.90;99.90
40177;DHT22;31511;46.176;9.874;2023-05-29T14:51:29;25.10;99.90
40177;DHT22;31511;46.176;9.874;2023-05-29T14:54:14;25.10;99.90
40177;DHT22;31511;46.176;9.874;2023-05-29T14:56:59;24.80;99.90
40177;DHT22;31511;46.176;9.874;2023-05-29T14:59:43;24.90;99.90
40177;DHT22;31511;46.176;9.874;2023-05-29T15:02:28;24.80;99.90
40177;DHT22;31511;46.176;9.874;2023-05-29T15:05:13;24.80;99.90
40177;DHT22;31511;46.176;9.874;2023-05-29T15:07:58;24.80;99.90
40177;DHT22;31511;46.176;9.874;2023-05-29T15:10:43;24.70;99.90
40177;DHT22;31511;46.176;9.874;2023-05-29T15:13:29;24.50;99.90
40177;DHT22;31511;46.176;9.874;2023-05-29T15:16:15;24.40;99.90
40177;DHT22;31511;46.176;9.874;2023-05-29T15:19:00;24.40;99.90
40177;DHT22;31511;46.176;9.874;2023-05-29T15:21:44;24.30;99.90
40177;DHT22;31511;46.176;9.874;2023-05-29T15:24:29;24.50;99.90
40177;DHT22;31511;46.176;9.874;2023-05-29T15:27:14;24.70;99.90
40177;DHT22;31511;46.176;9.874;2023-05-29T15:30:09;24.80;99.90
40177;DHT22;31511;46.176;9.874;2023-05-29T15:32:53;24.80;99.90
40177;DHT22;31511;46.176;9.874;2023-05-29T15:35:37;25.00;99.90
40177;DHT22;31511;46.176;9.874;2023-05-29T15:38:23;24.90;99.90
40177;DHT22;31511;46.176;9.874;2023-05-29T15:41:10;25.10;99.90
40177;DHT22;31511;46.176;9.874;2023-05-29T15:43:55;25.10;99.90
40177;DHT22;31511;46.176;9.874;2023-05-29T15:46:39;25.10;99.90
40177;DHT22;31511;46.176;9.874;2023-05-29T15:49:25;25.20;99.90
40177;DHT22;31511;46.176;9.874;2023-05-29T15:52:12;25.20;99.90
40177;DHT22;31511;46.176;9.874;2023-05-29T15:54:57;25.10;99.90
40177;DHT22;31511;46.176;9.874;2023-05-29T15:57:42;24.80;99.90
40177;DHT22;31511;46.176;9.874;2023-05-29T16:00:26;24.70;99.90
40177;DHT22;31511;46.176;9.874;2023-05-29T16:03:10;24.60;99.90
40177;DHT22;31511;46.176;9.874;2023-05-29T16:05:55;24.70;99.90
40177;DHT22;31511;46.176;9.874;2023-05-29T16:08:39;24.60;99.90
40177;DHT22;31511;46.176;9.874;2023-05-29T16:11:27;24.40;99.90
40177;DHT22;31511;46.176;9.874;2023-05-29T16:14:12;24.50;99.90
40177;DHT22;31511;46.176;9.874;2023-05-29T16:16:58;24.40;99.90
40177;DHT22;31511;46.176;9.874;2023-05-29T16:19:42;24.30;99.90
40177;DHT22;31511;46.176;9.874;2023-05-29T16:22:28;24.10;99.90
40177;DHT22;31511;46.176;9.874;2023-05-29T16:25:15;24.10;99.90
40177;DHT22;31511;46.176;9.874;2023-05-29T16:28:00;23.90;99.90
40177;DHT22;31511;46.176;9.874;2023-05-29T16:30:44;23.80;99.90
40177;DHT22;31511;46.176;9.874;2023-05-29T16:33:29;23.90;99.90
40177;DHT22;31511;46.176;9.874;2023-05-29T16:36:13;23.70;99.90
40177;DHT22;31511;46.176;9.874;2023-05-29T16:38:59;23.60;99.90
40177;DHT22;31511;46.176;9.874;2023-05-29T16:41:43;23.40;99.90
40177;DHT22;31511;46.176;9.874;2023-05-29T16:44:29;23.10;99.90
40177;DHT22;31511;46.176;9.874;2023-05-29T16:47:14;22.20;99.90
40177;DHT22;31511;46.176;9.874;2023-05-29T16:49:59;21.70;99.90
40177;DHT22;31511;46.176;9.874;2023-05-29T16:52:43;21.50;99.90
40177;DHT22;31511;46.176;9.874;2023-05-29T16:55:28;21.60;99.90
40177;DHT22;31511;46.176;9.874;2023-05-29T16:58:12;21.40;99.90
40177;DHT22;31511;46.176;9.874;2023-05-29T17:00:57;21.30;99.90
40177;DHT22;31511;46.176;9.874;2023-05-29T17:03:42;21.00;99.90
40177;DHT22;31511;46.176;9.874;2023-05-29T17:06:27;20.90;99.90
40177;DHT22;31511;46.176;9.874;2023-05-29T17:09:13;20.80;99.90
40177;DHT22;31511;46.176;9.874;2023-05-29T17:11:58;20.90;99.90
40177;DHT22;31511;46.176;9.874;2023-05-29T17:14:42;21.30;99.90
40177;DHT22;31511;46.176;9.874;2023-05-29T17:17:28;21.50;99.90
40177;DHT22;31511;46.176;9.874;2023-05-29T17:20:12;21.40;99.90
40177;DHT22;31511;46.176;9.874;2023-05-29T17:23:01;21.10;99.90
40177;DHT22;31511;46.176;9.874;2023-05-29T17:25:45;21.00;99.90
40177;DHT22;31511;46.176;9.874;2023-05-29T17:28:29;20.70;99.90
40177;DHT22;31511;46.176;9.874;2023-05-29T17:31:14;20.80;99.90
40177;DHT22;31511;46.176;9.874;2023-05-29T17:33:59;20.70;99.90
40177;DHT22;31511;46.176;9.874;2023-05-29T17:36:43;20.60;99.90
40177;DHT22;31511;46.176;9.874;2023-05-29T17:39:29;20.50;99.90
40177;DHT22;31511;46.176;9.874;2023-05-29T17:42:14;20.50;99.90
40177;DHT22;31511;46.176;9.874;2023-05-29T17:44:58;20.50;99.90
40177;DHT22;31511;46.176;9.874;2023-05-29T17:47:43;20.40;99.90
40177;DHT22;31511;46.176;9.874;2023-05-29T17:50:28;20.50;99.90
40177;DHT22;31511;46.176;9.874;2023-05-29T17:53:19;20.60;99.90